sensor_id;sensor_type;location;lat;lon;timestamp;temperature;humidity
11824;DHT22;5969;50.780;7.726;2022-09-24T00:02:24;8.30;99.90
11824;DHT22;5969;50.780;7.726;2022-09-24T00:04:51;8.30;99.90
11824;DHT22;5969;50.780;7.726;2022-09-24T00:07:17;8.20;99.90
11824;DHT22;5969;50.780;7.726;2022-09-24T00:09:46;8.20;99.90
11824;DHT22;5969;50.780;7.726;2022-09-24T00:12:13;8.10;99.90
11824;DHT22;5969;50.780;7.726;2022-09-24T00:14:40;8.10;99.90
11824;DHT22;5969;50.780;7.726;2022-09-24T00:17:07;8.00;99.90
11824;DHT22;5969;50.780;7.726;2022-09-24T00:19:33;8.00;99.90
11824;DHT22;5969;50.780;7.726;2022-09-24T00:22:00;7.90;99.90
11824;DHT22;5969;50.780;7.726;2022-09-24T00:24:27;7.80;99.90
11824;DHT22;5969;50.780;7.726;2022-09-24T00:27:12;7.80;99.90
11824;DHT22;5969;50.780;7.726;2022-09-24T00:29:39;7.80;99.90
11824;DHT22;5969;50.780;7.726;2022-09-24T00:32:06;7.80;99.90
11824;DHT22;5969;50.780;7.726;2022-09-24T00:34:33;7.70;99.90
11824;DHT22;5969;50.780;7.726;2022-09-24T00:37:00;7.70;99.90
11824;DHT22;5969;50.780;7.726;2022-09-24T00:39:27;7.60;99.90
11824;DHT22;5969;50.780;7.726;2022-09-24T00:41:53;7.60;99.90
11824;DHT22;5969;50.780;7.726;2022-09-24T00:47:34;7.50;99.90
11824;DHT22;5969;50.780;7.726;2022-09-24T00:50:06;7.40;99.90
11824;DHT22;5969;50.780;7.726;2022-09-24T00:52:35;7.30;99.90
11824;DHT22;5969;50.780;7.726;2022-09-24T00:55:04;7.30;99.90
11824;DHT22;5969;50.780;7.726;2022-09-24T00:57:31;7.30;99.90
11824;DHT22;5969;50.780;7.726;2022-09-24T00:59:58;7.30;99.90
11824;DHT22;5969;50.780;7.726;2022-09-24T01:02:25;7.30;99.90
11824;DHT22;5969;50.780;7.726;2022-09-24T01:04:53;7.30;99.90
11824;DHT22;5969;50.780;7.726;2022-09-24T01:07:20;7.30;99.90
11824;DHT22;5969;50.780;7.726;2022-09-24T01:09:46;7.40;99.90
11824;DHT22;5969;50.780;7.726;2022-09-24T01:12:18;7.40;99.90
11824;DHT22;5969;50.780;7.726;2022-09-24T01:15:14;7.40;99.90
11824;DHT22;5969;50.780;7.726;2022-09-24T01:17:51;7.40;99.90
11824;DHT22;5969;50.780;7.726;2022-09-24T01:20:36;7.40;99.90
11824;DHT22;5969;50.780;7.726;2022-09-24T01:23:29;7.30;99.90
11824;DHT22;5969;50.780;7.726;2022-09-24T01:26:09;7.20;99.90
11824;DHT22;5969;50.780;7.726;2022-09-24T01:28:56;7.20;99.90
11824;DHT22;5969;50.780;7.726;2022-09-24T01:31:33;7.20;99.90
11824;DHT22;5969;50.780;7.726;2022-09-24T01:34:03;7.20;99.90
11824;DHT22;5969;50.780;7.726;2022-09-24T01:36:31;7.20;99.90
11824;DHT22;5969;50.780;7.726;2022-09-24T01:39:00;7.10;99.90
11824;DHT22;5969;50.780;7.726;2022-09-24T01:41:27;7.10;99.90
11824;DHT22;5969;50.780;7.726;2022-09-24T01:43:54;7.00;99.90
11824;DHT22;5969;50.780;7.726;2022-09-24T01:46:21;7.00;99.90
11824;DHT22;5969;50.780;7.726;2022-09-24T01:48:50;7.00;99.90
11824;DHT22;5969;50.780;7.726;2022-09-24T01:51:20;6.90;99.90
11824;DHT22;5969;50.780;7.726;2022-09-24T01:53:52;6.80;99.90
11824;DHT22;5969;50.780;7.726;2022-09-24T01:56:23;6.80;99.90
11824;DHT22;5969;50.780;7.726;2022-09-24T01:58:54;6.70;99.90
11824;DHT22;5969;50.780;7.726;2022-09-24T02:01:26;6.60;99.90
11824;DHT22;5969;50.780;7.726;2022-09-24T02:04:02;6.60;99.90
11824;DHT22;5969;50.780;7.726;2022-09-24T02:06:33;6.70;99.90
11824;DHT22;5969;50.780;7.726;2022-09-24T02:09:02;6.70;99.90
11824;DHT22;5969;50.780;7.726;2022-09-24T02:11:30;6.70;99.90
11824;DHT22;5969;50.780;7.726;2022-09-24T02:14:01;6.70;99.90
11824;DHT22;5969;50.780;7.726;2022-09-24T02:16:33;6.70;99.90
11824;DHT22;5969;50.780;7.726;2022-09-24T02:19:04;6.70;99.90
11824;DHT22;5969;50.780;7.726;2022-09-24T02:21:35;6.80;99.90
11824;DHT22;5969;50.780;7.726;2022-09-24T02:24:11;6.70;99.90
11824;DHT22;5969;50.780;7.726;2022-09-24T02:26:39;6.70;99.90
11824;DHT22;5969;50.780;7.726;2022-09-24T02:29:06;6.70;99.90
11824;DHT22;5969;50.780;7.726;2022-09-24T02:31:36;6.70;99.90
11824;DHT22;5969;50.780;7.726;2022-09-24T02:34:07;6.70;99.90
11824;DHT22;5969;50.780;7.726;2022-09-24T02:36:51;6.70;99.90
11824;DHT22;5969;50.780;7.726;2022-09-24T02:39:18;6.70;99.90
11824;DHT22;5969;50.780;7.726;2022-09-24T02:41:46;6.70;99.90
11824;DHT22;5969;50.780;7.726;2022-09-24T02:44:13;6.50;99.90
11824;DHT22;5969;50.780;7.726;2022-09-24T02:46:41;6.50;99.90
11824;DHT22;5969;50.780;7.726;2022-09-24T02:49:12;6.50;99.90
11824;DHT22;5969;50.780;7.726;2022-09-24T02:51:39;6.50;99.90
11824;DHT22;5969;50.780;7.726;2022-09-24T02:54:07;6.40;99.90
11824;DHT22;5969;50.780;7.726;2022-09-24T02:56:34;6.40;99.90
11824;DHT22;5969;50.780;7.726;2022-09-24T02:59:02;6.40;99.90
11824;DHT22;5969;50.780;7.726;2022-09-24T03:01:29;6.30;99.90
11824;DHT22;5969;50.780;7.726;2022-09-24T03:03:57;6.30;99.90
11824;DHT22;5969;50.780;7.726;2022-09-24T03:06:25;6.30;99.90
11824;DHT22;5969;50.780;7.726;2022-09-24T03:08:52;6.10;99.90
11824;DHT22;5969;50.780;7.726;2022-09-24T03:11:20;6.20;99.90
11824;DHT22;5969;50.780;7.726;2022-09-24T03:13:47;6.10;99.90
11824;DHT22;5969;50.780;7.726;2022-09-24T03:16:15;6.00;99.90
11824;DHT22;5969;50.780;7.726;2022-09-24T03:18:42;5.90;99.90
11824;DHT22;5969;50.780;7.726;2022-09-24T03:21:10;5.90;99.90
11824;DHT22;5969;50.780;7.726;2022-09-24T03:23:39;5.90;99.90
11824;DHT22;5969;50.780;7.726;2022-09-24T03:26:06;5.90;99.90
11824;DHT22;5969;50.780;7.726;2022-09-24T03:28:33;6.00;99.90
11824;DHT22;5969;50.780;7.726;2022-09-24T03:31:00;6.00;99.90
11824;DHT22;5969;50.780;7.726;2022-09-24T03:33:27;6.00;99.90
11824;DHT22;5969;50.780;7.726;2022-09-24T03:35:55;6.00;99.90
11824;DHT22;5969;50.780;7.726;2022-09-24T03:38:22;6.00;99.90
11824;DHT22;5969;50.780;7.726;2022-09-24T03:40:50;5.90;99.90
11824;DHT22;5969;50.780;7.726;2022-09-24T03:43:17;5.90;99.90
11824;DHT22;5969;50.780;7.726;2022-09-24T03:45:43;6.00;99.90
11824;DHT22;5969;50.780;7.726;2022-09-24T03:48:10;6.00;99.90
11824;DHT22;5969;50.780;7.726;2022-09-24T03:50:37;6.00;99.90
11824;DHT22;5969;50.780;7.726;2022-09-24T03:53:04;6.00;99.90
11824;DHT22;5969;50.780;7.726;2022-09-24T03:55:31;6.00;99.90
11824;DHT22;5969;50.780;7.726;2022-09-24T03:58:00;6.00;99.90
11824;DHT22;5969;50.780;7.726;2022-09-24T04:00:27;6.00;99.90
11824;DHT22;5969;50.780;7.726;2022-09-24T04:02:53;5.90;99.90
11824;DHT22;5969;50.780;7.726;2022-09-24T04:05:20;5.90;99.90
11824;DHT22;5969;50.780;7.726;2022-09-24T04:07:47;5.90;99.90
11824;DHT22;5969;50.780;7.726;2022-09-24T04:10:13;6.00;99.90
11824;DHT22;5969;50.780;7.726;2022-09-24T04:12:40;6.00;99.90
11824;DHT22;5969;50.780;7.726;2022-09-24T04:15:11;6.00;99.90
11824;DHT22;5969;50.780;7.726;2022-09-24T04:17:41;6.00;99.90
11824;DHT22;5969;50.780;7.726;2022-09-24T04:20:07;6.00;99.90
11824;DHT22;5969;50.780;7.726;2022-09-24T04:22:37;6.00;99.90
11824;DHT22;5969;50.780;7.726;2022-09-24T04:25:04;6.00;99.90
11824;DHT22;5969;50.780;7.726;2022-09-24T04:27:31;6.00;99.90
11824;DHT22;5969;50.780;7.726;2022-09-24T04:30:00;6.00;99.90
11824;DHT22;5969;50.780;7.726;2022-09-24T04:32:28;6.00;99.90
11824;DHT22;5969;50.780;7.726;2022-09-24T04:34:55;6.10;99.90
11824;DHT22;5969;50.780;7.726;2022-09-24T04:37:21;6.10;99.90
11824;DHT22;5969;50.780;7.726;2022-09-24T04:39:48;6.10;99.90
11824;DHT22;5969;50.780;7.726;2022-09-24T04:42:16;6.10;99.90
11824;DHT22;5969;50.780;7.726;2022-09-24T04:44:43;6.10;99.90
11824;DHT22;5969;50.780;7.726;2022-09-24T04:47:11;6.20;99.90
11824;DHT22;5969;50.780;7.726;2022-09-24T04:49:40;6.20;99.90
11824;DHT22;5969;50.780;7.726;2022-09-24T04:52:07;6.20;99.90
11824;DHT22;5969;50.780;7.726;2022-09-24T04:54:34;6.20;99.90
11824;DHT22;5969;50.780;7.726;2022-09-24T04:57:01;6.20;99.90
11824;DHT22;5969;50.780;7.726;2022-09-24T04:59:27;6.20;99.90
11824;DHT22;5969;50.780;7.726;2022-09-24T05:01:54;6.20;99.90
11824;DHT22;5969;50.780;7.726;2022-09-24T05:04:21;6.10;99.90
11824;DHT22;5969;50.780;7.726;2022-09-24T05:06:49;6.10;99.90
11824;DHT22;5969;50.780;7.726;2022-09-24T05:09:16;6.10;99.90
11824;DHT22;5969;50.780;7.726;2022-09-24T05:11:42;6.10;99.90
11824;DHT22;5969;50.780;7.726;2022-09-24T05:14:09;6.10;99.90
11824;DHT22;5969;50.780;7.726;2022-09-24T05:16:36;6.10;99.90
11824;DHT22;5969;50.780;7.726;2022-09-24T05:19:03;6.10;99.90
11824;DHT22;5969;50.780;7.726;2022-09-24T05:21:29;6.10;99.90
11824;DHT22;5969;50.780;7.726;2022-09-24T05:23:58;6.10;99.90
11824;DHT22;5969;50.780;7.726;2022-09-24T05:26:24;6.20;99.90
11824;DHT22;5969;50.780;7.726;2022-09-24T05:29:08;6.20;99.90
11824;DHT22;5969;50.780;7.726;2022-09-24T05:31:35;6.20;99.90
11824;DHT22;5969;50.780;7.726;2022-09-24T05:34:02;6.30;99.90
11824;DHT22;5969;50.780;7.726;2022-09-24T05:36:29;6.40;99.90
11824;DHT22;5969;50.780;7.726;2022-09-24T05:38:57;6.50;99.90
11824;DHT22;5969;50.780;7.726;2022-09-24T05:41:24;6.40;99.90
11824;DHT22;5969;50.780;7.726;2022-09-24T05:43:51;6.40;99.90
11824;DHT22;5969;50.780;7.726;2022-09-24T05:46:17;6.50;99.90
11824;DHT22;5969;50.780;7.726;2022-09-24T05:48:44;6.50;99.90
11824;DHT22;5969;50.780;7.726;2022-09-24T05:51:11;6.50;99.90
11824;DHT22;5969;50.780;7.726;2022-09-24T05:53:37;6.40;99.90
11824;DHT22;5969;50.780;7.726;2022-09-24T05:56:06;6.50;99.90
11824;DHT22;5969;50.780;7.726;2022-09-24T05:58:34;6.60;99.90
11824;DHT22;5969;50.780;7.726;2022-09-24T06:01:01;6.60;99.90
11824;DHT22;5969;50.780;7.726;2022-09-24T06:03:28;6.60;99.90
11824;DHT22;5969;50.780;7.726;2022-09-24T06:05:56;6.70;99.90
11824;DHT22;5969;50.780;7.726;2022-09-24T06:08:24;6.70;99.90
11824;DHT22;5969;50.780;7.726;2022-09-24T06:10:50;6.70;99.90
11824;DHT22;5969;50.780;7.726;2022-09-24T06:13:19;6.80;99.90
11824;DHT22;5969;50.780;7.726;2022-09-24T06:15:47;7.00;99.90
11824;DHT22;5969;50.780;7.726;2022-09-24T06:18:13;7.10;99.90
11824;DHT22;5969;50.780;7.726;2022-09-24T06:20:40;7.10;99.90
11824;DHT22;5969;50.780;7.726;2022-09-24T06:23:07;7.20;99.90
11824;DHT22;5969;50.780;7.726;2022-09-24T06:25:34;7.20;99.90
11824;DHT22;5969;50.780;7.726;2022-09-24T06:28:03;7.30;99.90
11824;DHT22;5969;50.780;7.726;2022-09-24T06:30:33;7.40;99.90
11824;DHT22;5969;50.780;7.726;2022-09-24T06:33:01;7.40;99.90
11824;DHT22;5969;50.780;7.726;2022-09-24T06:35:29;7.50;99.90
11824;DHT22;5969;50.780;7.726;2022-09-24T06:37:56;7.50;99.90
11824;DHT22;5969;50.780;7.726;2022-09-24T06:40:23;7.60;99.90
11824;DHT22;5969;50.780;7.726;2022-09-24T06:42:50;7.70;99.90
11824;DHT22;5969;50.780;7.726;2022-09-24T06:45:17;7.80;99.90
11824;DHT22;5969;50.780;7.726;2022-09-24T06:47:52;7.90;99.90
11824;DHT22;5969;50.780;7.726;2022-09-24T06:50:19;7.90;99.90
11824;DHT22;5969;50.780;7.726;2022-09-24T06:52:45;8.00;99.90
11824;DHT22;5969;50.780;7.726;2022-09-24T06:55:12;8.00;99.90
11824;DHT22;5969;50.780;7.726;2022-09-24T06:57:39;8.00;99.90
11824;DHT22;5969;50.780;7.726;2022-09-24T07:00:06;8.10;99.90
11824;DHT22;5969;50.780;7.726;2022-09-24T07:02:33;8.10;99.90
11824;DHT22;5969;50.780;7.726;2022-09-24T07:05:01;8.20;99.90
11824;DHT22;5969;50.780;7.726;2022-09-24T07:07:28;8.20;99.90
11824;DHT22;5969;50.780;7.726;2022-09-24T07:09:56;8.20;99.90
11824;DHT22;5969;50.780;7.726;2022-09-24T07:12:23;8.30;99.90
11824;DHT22;5969;50.780;7.726;2022-09-24T07:14:49;8.40;99.90
11824;DHT22;5969;50.780;7.726;2022-09-24T07:17:17;8.50;99.90
11824;DHT22;5969;50.780;7.726;2022-09-24T07:19:44;8.60;99.90
11824;DHT22;5969;50.780;7.726;2022-09-24T07:22:12;8.70;99.90
11824;DHT22;5969;50.780;7.726;2022-09-24T07:24:39;8.80;99.90
11824;DHT22;5969;50.780;7.726;2022-09-24T07:27:06;9.00;99.90
11824;DHT22;5969;50.780;7.726;2022-09-24T07:29:33;8.90;99.90
11824;DHT22;5969;50.780;7.726;2022-09-24T07:32:00;9.00;99.90
11824;DHT22;5969;50.780;7.726;2022-09-24T07:34:27;9.10;99.90
11824;DHT22;5969;50.780;7.726;2022-09-24T07:36:54;9.20;99.90
11824;DHT22;5969;50.780;7.726;2022-09-24T07:39:23;9.30;99.90
11824;DHT22;5969;50.780;7.726;2022-09-24T07:41:50;9.40;99.90
11824;DHT22;5969;50.780;7.726;2022-09-24T07:44:17;9.40;99.90
11824;DHT22;5969;50.780;7.726;2022-09-24T07:46:45;9.60;99.90
11824;DHT22;5969;50.780;7.726;2022-09-24T07:49:13;9.70;99.90
11824;DHT22;5969;50.780;7.726;2022-09-24T07:51:39;9.80;99.90
11824;DHT22;5969;50.780;7.726;2022-09-24T07:54:06;9.80;99.90
11824;DHT22;5969;50.780;7.726;2022-09-24T07:56:34;9.90;99.90
11824;DHT22;5969;50.780;7.726;2022-09-24T07:59:01;10.00;99.90
11824;DHT22;5969;50.780;7.726;2022-09-24T08:01:31;10.00;99.90
11824;DHT22;5969;50.780;7.726;2022-09-24T08:03:57;10.10;99.90
11824;DHT22;5969;50.780;7.726;2022-09-24T08:06:24;10.20;99.90
11824;DHT22;5969;50.780;7.726;2022-09-24T08:08:52;10.40;99.90
11824;DHT22;5969;50.780;7.726;2022-09-24T08:11:20;10.50;99.90
11824;DHT22;5969;50.780;7.726;2022-09-24T08:13:48;10.70;99.90
11824;DHT22;5969;50.780;7.726;2022-09-24T08:16:16;10.90;99.90
11824;DHT22;5969;50.780;7.726;2022-09-24T08:18:43;10.90;99.90
11824;DHT22;5969;50.780;7.726;2022-09-24T08:21:11;11.00;99.90
11824;DHT22;5969;50.780;7.726;2022-09-24T08:23:40;11.00;99.90
11824;DHT22;5969;50.780;7.726;2022-09-24T08:26:07;11.00;99.90
11824;DHT22;5969;50.780;7.726;2022-09-24T08:28:35;11.20;99.90
11824;DHT22;5969;50.780;7.726;2022-09-24T08:31:05;11.20;99.90
11824;DHT22;5969;50.780;7.726;2022-09-24T08:33:34;11.40;99.90
11824;DHT22;5969;50.780;7.726;2022-09-24T08:36:02;11.60;99.90
11824;DHT22;5969;50.780;7.726;2022-09-24T08:38:30;11.70;99.90
11824;DHT22;5969;50.780;7.726;2022-09-24T08:41:03;11.90;99.90
11824;DHT22;5969;50.780;7.726;2022-09-24T08:43:39;12.10;99.90
11824;DHT22;5969;50.780;7.726;2022-09-24T08:46:14;12.20;99.90
11824;DHT22;5969;50.780;7.726;2022-09-24T08:49:01;12.30;99.90
11824;DHT22;5969;50.780;7.726;2022-09-24T08:51:35;12.50;99.90
11824;DHT22;5969;50.780;7.726;2022-09-24T08:54:07;12.70;99.90
11824;DHT22;5969;50.780;7.726;2022-09-24T08:56:37;12.70;99.90
11824;DHT22;5969;50.780;7.726;2022-09-24T08:59:13;12.90;99.90
11824;DHT22;5969;50.780;7.726;2022-09-24T09:01:45;12.90;99.90
11824;DHT22;5969;50.780;7.726;2022-09-24T09:04:23;13.20;99.90
11824;DHT22;5969;50.780;7.726;2022-09-24T09:07:00;13.30;99.90
11824;DHT22;5969;50.780;7.726;2022-09-24T09:09:42;13.30;99.90
11824;DHT22;5969;50.780;7.726;2022-09-24T09:12:13;13.10;99.90
11824;DHT22;5969;50.780;7.726;2022-09-24T09:14:45;13.20;99.90
11824;DHT22;5969;50.780;7.726;2022-09-24T09:17:23;13.50;99.90
11824;DHT22;5969;50.780;7.726;2022-09-24T09:19:56;13.60;99.90
11824;DHT22;5969;50.780;7.726;2022-09-24T09:22:27;14.00;99.90
11824;DHT22;5969;50.780;7.726;2022-09-24T09:24:57;14.20;99.90
11824;DHT22;5969;50.780;7.726;2022-09-24T09:27:26;14.50;99.90
11824;DHT22;5969;50.780;7.726;2022-09-24T09:29:56;14.60;99.90
11824;DHT22;5969;50.780;7.726;2022-09-24T09:32:33;14.40;99.90
11824;DHT22;5969;50.780;7.726;2022-09-24T09:35:10;14.30;99.90
11824;DHT22;5969;50.780;7.726;2022-09-24T09:37:43;14.20;99.90
11824;DHT22;5969;50.780;7.726;2022-09-24T09:40:23;14.40;99.90
11824;DHT22;5969;50.780;7.726;2022-09-24T09:42:58;14.80;99.90
11824;DHT22;5969;50.780;7.726;2022-09-24T09:45:30;14.90;99.90
11824;DHT22;5969;50.780;7.726;2022-09-24T09:48:00;15.10;99.90
11824;DHT22;5969;50.780;7.726;2022-09-24T09:50:29;15.10;99.90
11824;DHT22;5969;50.780;7.726;2022-09-24T09:52:58;15.10;99.90
11824;DHT22;5969;50.780;7.726;2022-09-24T09:55:26;15.40;99.90
11824;DHT22;5969;50.780;7.726;2022-09-24T09:58:08;15.60;99.90
11824;DHT22;5969;50.780;7.726;2022-09-24T10:00:35;15.80;99.90
11824;DHT22;5969;50.780;7.726;2022-09-24T10:03:04;16.00;99.90
11824;DHT22;5969;50.780;7.726;2022-09-24T10:05:31;15.90;99.90
11824;DHT22;5969;50.780;7.726;2022-09-24T10:07:58;15.80;99.90
11824;DHT22;5969;50.780;7.726;2022-09-24T10:10:25;16.00;99.90
11824;DHT22;5969;50.780;7.726;2022-09-24T10:12:53;16.30;99.90
11824;DHT22;5969;50.780;7.726;2022-09-24T10:15:22;16.50;99.90
11824;DHT22;5969;50.780;7.726;2022-09-24T10:17:51;16.50;99.90
11824;DHT22;5969;50.780;7.726;2022-09-24T10:20:23;16.70;99.90
11824;DHT22;5969;50.780;7.726;2022-09-24T10:22:53;16.70;99.90
11824;DHT22;5969;50.780;7.726;2022-09-24T10:25:23;17.00;99.90
11824;DHT22;5969;50.780;7.726;2022-09-24T10:27:51;17.10;99.90
11824;DHT22;5969;50.780;7.726;2022-09-24T10:30:19;17.00;99.90
11824;DHT22;5969;50.780;7.726;2022-09-24T10:33:01;17.00;99.90
11824;DHT22;5969;50.780;7.726;2022-09-24T10:35:32;16.90;99.90
11824;DHT22;5969;50.780;7.726;2022-09-24T10:38:01;16.80;99.90
11824;DHT22;5969;50.780;7.726;2022-09-24T10:40:29;16.90;99.90
11824;DHT22;5969;50.780;7.726;2022-09-24T10:42:58;16.80;99.90
11824;DHT22;5969;50.780;7.726;2022-09-24T10:45:42;16.70;99.90
11824;DHT22;5969;50.780;7.726;2022-09-24T10:48:15;16.60;99.90
11824;DHT22;5969;50.780;7.726;2022-09-24T10:50:50;16.50;99.90
11824;DHT22;5969;50.780;7.726;2022-09-24T10:53:30;16.60;99.90
11824;DHT22;5969;50.780;7.726;2022-09-24T10:56:08;16.70;99.90
11824;DHT22;5969;50.780;7.726;2022-09-24T10:59:02;16.80;99.90
11824;DHT22;5969;50.780;7.726;2022-09-24T11:01:39;16.90;99.90
11824;DHT22;5969;50.780;7.726;2022-09-24T11:04:21;17.00;99.90
11824;DHT22;5969;50.780;7.726;2022-09-24T11:07:06;16.90;99.90
11824;DHT22;5969;50.780;7.726;2022-09-24T11:09:40;16.90;99.90
11824;DHT22;5969;50.780;7.726;2022-09-24T11:12:17;17.00;99.90
11824;DHT22;5969;50.780;7.726;2022-09-24T11:14:55;16.90;99.90
11824;DHT22;5969;50.780;7.726;2022-09-24T11:17:36;17.00;99.90
11824;DHT22;5969;50.780;7.726;2022-09-24T11:20:13;17.20;99.90
11824;DHT22;5969;50.780;7.726;2022-09-24T11:22:56;17.30;99.90
11824;DHT22;5969;50.780;7.726;2022-09-24T11:25:38;17.40;99.90
11824;DHT22;5969;50.780;7.726;2022-09-24T11:28:19;17.40;99.90
11824;DHT22;5969;50.780;7.726;2022-09-24T11:30:57;17.60;99.90
11824;DHT22;5969;50.780;7.726;2022-09-24T11:33:38;17.60;99.90
11824;DHT22;5969;50.780;7.726;2022-09-24T11:36:19;17.70;99.90
11824;DHT22;5969;50.780;7.726;2022-09-24T11:39:03;17.80;99.90
11824;DHT22;5969;50.780;7.726;2022-09-24T11:41:42;17.90;99.90
11824;DHT22;5969;50.780;7.726;2022-09-24T11:44:31;17.80;99.90
11824;DHT22;5969;50.780;7.726;2022-09-24T11:47:14;17.90;99.90
11824;DHT22;5969;50.780;7.726;2022-09-24T11:49:58;17.90;99.90
11824;DHT22;5969;50.780;7.726;2022-09-24T11:52:30;18.00;99.90
11824;DHT22;5969;50.780;7.726;2022-09-24T11:55:04;18.10;99.90
11824;DHT22;5969;50.780;7.726;2022-09-24T11:57:40;18.10;99.90
11824;DHT22;5969;50.780;7.726;2022-09-24T12:00:13;18.10;99.90
11824;DHT22;5969;50.780;7.726;2022-09-24T12:02:46;18.20;99.90
11824;DHT22;5969;50.780;7.726;2022-09-24T12:05:19;18.00;99.90
11824;DHT22;5969;50.780;7.726;2022-09-24T12:07:52;18.10;99.90
11824;DHT22;5969;50.780;7.726;2022-09-24T12:10:30;18.10;99.90
11824;DHT22;5969;50.780;7.726;2022-09-24T12:13:03;18.20;99.90
11824;DHT22;5969;50.780;7.726;2022-09-24T12:15:41;18.20;99.90
11824;DHT22;5969;50.780;7.726;2022-09-24T12:18:15;18.20;99.90
11824;DHT22;5969;50.780;7.726;2022-09-24T12:20:47;18.20;99.90
11824;DHT22;5969;50.780;7.726;2022-09-24T12:23:18;18.30;99.90
11824;DHT22;5969;50.780;7.726;2022-09-24T12:25:48;18.30;99.90
11824;DHT22;5969;50.780;7.726;2022-09-24T12:28:19;18.30;99.90
11824;DHT22;5969;50.780;7.726;2022-09-24T12:31:01;18.20;99.90
11824;DHT22;5969;50.780;7.726;2022-09-24T12:33:51;18.00;99.90
11824;DHT22;5969;50.780;7.726;2022-09-24T12:36:23;18.30;99.90
11824;DHT22;5969;50.780;7.726;2022-09-24T12:38:55;18.30;99.90
11824;DHT22;5969;50.780;7.726;2022-09-24T12:41:29;18.30;99.90
11824;DHT22;5969;50.780;7.726;2022-09-24T12:44:01;18.30;99.90
11824;DHT22;5969;50.780;7.726;2022-09-24T12:46:34;18.40;99.90
11824;DHT22;5969;50.780;7.726;2022-09-24T12:49:14;18.40;99.90
11824;DHT22;5969;50.780;7.726;2022-09-24T12:51:42;18.30;99.90
11824;DHT22;5969;50.780;7.726;2022-09-24T12:54:21;18.20;99.90
11824;DHT22;5969;50.780;7.726;2022-09-24T12:57:03;18.10;99.90
11824;DHT22;5969;50.780;7.726;2022-09-24T12:59:31;18.10;99.90
11824;DHT22;5969;50.780;7.726;2022-09-24T13:02:06;18.00;99.90
11824;DHT22;5969;50.780;7.726;2022-09-24T13:04:43;17.90;99.90
11824;DHT22;5969;50.780;7.726;2022-09-24T13:07:28;17.80;99.90
11824;DHT22;5969;50.780;7.726;2022-09-24T13:09:55;17.80;99.90
11824;DHT22;5969;50.780;7.726;2022-09-24T13:12:30;17.70;99.90
11824;DHT22;5969;50.780;7.726;2022-09-24T13:15:00;17.70;99.90
11824;DHT22;5969;50.780;7.726;2022-09-24T13:17:29;17.50;99.90
11824;DHT22;5969;50.780;7.726;2022-09-24T13:19:58;17.30;99.90
11824;DHT22;5969;50.780;7.726;2022-09-24T13:22:27;17.20;99.90
11824;DHT22;5969;50.780;7.726;2022-09-24T13:25:19;17.40;99.90
11824;DHT22;5969;50.780;7.726;2022-09-24T13:27:57;17.50;99.90
11824;DHT22;5969;50.780;7.726;2022-09-24T13:30:35;17.50;99.90
11824;DHT22;5969;50.780;7.726;2022-09-24T13:33:12;17.40;99.90
11824;DHT22;5969;50.780;7.726;2022-09-24T13:35:46;17.40;99.90
11824;DHT22;5969;50.780;7.726;2022-09-24T13:38:19;17.40;99.90
11824;DHT22;5969;50.780;7.726;2022-09-24T13:40:52;17.30;99.90
11824;DHT22;5969;50.780;7.726;2022-09-24T13:43:32;17.30;99.90
11824;DHT22;5969;50.780;7.726;2022-09-24T13:46:04;17.10;99.90
11824;DHT22;5969;50.780;7.726;2022-09-24T13:48:35;17.10;99.90
11824;DHT22;5969;50.780;7.726;2022-09-24T13:51:03;17.10;99.90
11824;DHT22;5969;50.780;7.726;2022-09-24T13:53:35;17.10;99.90
11824;DHT22;5969;50.780;7.726;2022-09-24T13:56:10;17.10;99.90
11824;DHT22;5969;50.780;7.726;2022-09-24T13:58:39;17.10;99.90
11824;DHT22;5969;50.780;7.726;2022-09-24T14:01:11;17.10;99.90
11824;DHT22;5969;50.780;7.726;2022-09-24T14:03:38;17.00;99.90
11824;DHT22;5969;50.780;7.726;2022-09-24T14:06:09;17.10;99.90
11824;DHT22;5969;50.780;7.726;2022-09-24T14:08:40;17.00;99.90
11824;DHT22;5969;50.780;7.726;2022-09-24T14:11:14;17.10;99.90
11824;DHT22;5969;50.780;7.726;2022-09-24T14:13:43;17.20;99.90
11824;DHT22;5969;50.780;7.726;2022-09-24T14:16:14;17.30;99.90
11824;DHT22;5969;50.780;7.726;2022-09-24T14:18:42;17.20;99.90
11824;DHT22;5969;50.780;7.726;2022-09-24T14:21:11;17.30;99.90
11824;DHT22;5969;50.780;7.726;2022-09-24T14:23:43;17.40;99.90
11824;DHT22;5969;50.780;7.726;2022-09-24T14:26:24;17.40;99.90
11824;DHT22;5969;50.780;7.726;2022-09-24T14:28:53;17.40;99.90
11824;DHT22;5969;50.780;7.726;2022-09-24T14:31:21;17.50;99.90
11824;DHT22;5969;50.780;7.726;2022-09-24T14:33:48;17.40;99.90
11824;DHT22;5969;50.780;7.726;2022-09-24T14:36:15;17.40;99.90
11824;DHT22;5969;50.780;7.726;2022-09-24T14:38:48;17.40;99.90
11824;DHT22;5969;50.780;7.726;2022-09-24T14:41:18;17.10;99.90
11824;DHT22;5969;50.780;7.726;2022-09-24T14:43:47;17.00;99.90
11824;DHT22;5969;50.780;7.726;2022-09-24T14:46:21;16.90;99.90
11824;DHT22;5969;50.780;7.726;2022-09-24T14:48:48;16.90;99.90
11824;DHT22;5969;50.780;7.726;2022-09-24T14:51:23;16.80;99.90
11824;DHT22;5969;50.780;7.726;2022-09-24T14:53:56;16.80;99.90
11824;DHT22;5969;50.780;7.726;2022-09-24T14:56:27;16.80;99.90
11824;DHT22;5969;50.780;7.726;2022-09-24T14:58:54;16.80;99.90
11824;DHT22;5969;50.780;7.726;2022-09-24T15:01:24;16.70;99.90
11824;DHT22;5969;50.780;7.726;2022-09-24T15:03:53;16.70;99.90
11824;DHT22;5969;50.780;7.726;2022-09-24T15:06:23;16.60;99.90
11824;DHT22;5969;50.780;7.726;2022-09-24T15:08:53;16.70;99.90
11824;DHT22;5969;50.780;7.726;2022-09-24T15:11:23;16.50;99.90
11824;DHT22;5969;50.780;7.726;2022-09-24T15:13:57;16.50;99.90
11824;DHT22;5969;50.780;7.726;2022-09-24T15:16:30;16.50;99.90
11824;DHT22;5969;50.780;7.726;2022-09-24T15:19:12;16.30;99.90
11824;DHT22;5969;50.780;7.726;2022-09-24T15:21:39;16.20;99.90
11824;DHT22;5969;50.780;7.726;2022-09-24T15:24:06;16.10;99.90
11824;DHT22;5969;50.780;7.726;2022-09-24T15:26:35;16.10;99.90
11824;DHT22;5969;50.780;7.726;2022-09-24T15:29:03;16.00;99.90
11824;DHT22;5969;50.780;7.726;2022-09-24T15:31:31;15.90;99.90
11824;DHT22;5969;50.780;7.726;2022-09-24T15:33:58;15.90;99.90
11824;DHT22;5969;50.780;7.726;2022-09-24T15:36:24;15.80;99.90
11824;DHT22;5969;50.780;7.726;2022-09-24T15:38:52;15.80;99.90
11824;DHT22;5969;50.780;7.726;2022-09-24T15:41:22;15.80;99.90
11824;DHT22;5969;50.780;7.726;2022-09-24T15:43:49;15.80;99.90
11824;DHT22;5969;50.780;7.726;2022-09-24T15:46:16;15.80;99.90
11824;DHT22;5969;50.780;7.726;2022-09-24T15:48:44;15.70;99.90
11824;DHT22;5969;50.780;7.726;2022-09-24T15:51:11;15.60;99.90
11824;DHT22;5969;50.780;7.726;2022-09-24T15:53:40;15.60;99.90
11824;DHT22;5969;50.780;7.726;2022-09-24T15:56:06;15.50;99.90
11824;DHT22;5969;50.780;7.726;2022-09-24T15:58:33;15.40;99.90
11824;DHT22;5969;50.780;7.726;2022-09-24T16:01:00;15.30;99.90
11824;DHT22;5969;50.780;7.726;2022-09-24T16:03:28;15.30;99.90
11824;DHT22;5969;50.780;7.726;2022-09-24T16:05:58;15.30;99.90
11824;DHT22;5969;50.780;7.726;2022-09-24T16:08:25;15.30;99.90
11824;DHT22;5969;50.780;7.726;2022-09-24T16:10:52;15.20;99.90
11824;DHT22;5969;50.780;7.726;2022-09-24T16:13:19;15.10;99.90
11824;DHT22;5969;50.780;7.726;2022-09-24T16:15:47;15.10;99.90
11824;DHT22;5969;50.780;7.726;2022-09-24T16:18:16;15.00;99.90
11824;DHT22;5969;50.780;7.726;2022-09-24T16:20:43;15.00;99.90